createdAt,value
2023-05-22T00:00:16.743Z,100715.58
2023-05-22T00:03:05.635Z,100716.58
2023-05-22T00:05:39.421Z,100720.41
2023-05-22T00:08:13.575Z,100717.66
2023-05-22T00:10:44.072Z,100719.63
2023-05-22T00:13:14.686Z,100719.11
2023-05-22T00:15:43.630Z,100711.48
2023-05-22T00:18:16.177Z,100715.97
2023-05-22T00:20:46.783Z,100713.92
2023-05-22T00:23:17.611Z,100711.30
2023-05-22T00:25:46.721Z,100708.88
2023-05-22T00:28:17.068Z,100709.59
2023-05-22T00:30:48.460Z,100707.64
2023-05-22T00:33:17.991Z,100711.77
2023-05-22T00:35:51.676Z,100709.59
2023-05-22T00:38:29.885Z,100713.96
2023-05-22T00:41:03.241Z,100706.67
2023-05-22T00:43:33.658Z,100710.55
2023-05-22T00:46:03.691Z,100708.88
2023-05-22T00:48:34.503Z,100705.23
2023-05-22T00:51:05.759Z,100705.62
2023-05-22T00:53:37.581Z,100703.83
2023-05-22T00:56:09.151Z,100705.27
2023-05-22T00:58:40.513Z,100703.69
2023-05-22T01:01:11.686Z,100698.61
2023-05-22T01:03:48.190Z,100696.53
2023-05-22T01:06:21.913Z,100693.25
2023-05-22T01:08:52.115Z,100693.38
2023-05-22T01:11:52.047Z,100693.70
2023-05-22T01:14:37.054Z,100699.80
2023-05-22T01:17:23.032Z,100699.47
2023-05-22T01:20:07.895Z,100700.94
2023-05-22T01:22:48.653Z,100702.40
2023-05-22T01:25:40.393Z,100700.25
2023-05-22T01:28:09.162Z,100701.09
2023-05-22T01:31:01.263Z,100698.90
2023-05-22T01:33:36.452Z,100696.31
2023-05-22T01:36:08.391Z,100694.38
2023-05-22T01:38:37.835Z,100695.73
2023-05-22T01:41:08.129Z,100701.72
2023-05-22T01:43:39.203Z,100700.91
2023-05-22T01:46:09.561Z,100702.61
2023-05-22T01:48:40.364Z,100703.63
2023-05-22T01:51:17.496Z,100703.30
2023-05-22T01:53:59.724Z,100702.52
2023-05-22T01:56:38.235Z,100703.55
2023-05-22T01:59:11.091Z,100704.40
2023-05-22T02:01:40.160Z,100707.42
2023-05-22T02:04:10.306Z,100706.05
2023-05-22T02:06:41.912Z,100700.02
2023-05-22T02:09:11.295Z,100701.94
2023-05-22T02:11:41.623Z,100702.06
2023-05-22T02:14:12.615Z,100697.68
2023-05-22T02:16:42.988Z,100698.52
2023-05-22T02:19:11.864Z,100703.82
2023-05-22T02:21:42.888Z,100698.25
2023-05-22T02:24:11.876Z,100694.53
2023-05-22T02:26:43.061Z,100695.98
2023-05-22T02:29:14.597Z,100691.41
2023-05-22T02:31:44.175Z,100694.68
2023-05-22T02:34:17.780Z,100693.60
2023-05-22T02:36:48.164Z,100690.25
2023-05-22T02:39:20.742Z,100686.08
2023-05-22T02:41:50.044Z,100690.91
2023-05-22T02:44:22.021Z,100686.98
2023-05-22T02:46:53.033Z,100687.41
2023-05-22T02:49:23.464Z,100680.44
2023-05-22T02:51:52.363Z,100683.89
2023-05-22T02:54:22.518Z,100684.35
2023-05-22T02:56:52.619Z,100682.64
2023-05-22T02:59:22.191Z,100677.33
2023-05-22T03:01:54.844Z,100677.35
2023-05-22T03:04:25.391Z,100675.55
2023-05-22T03:06:56.978Z,100677.92
2023-05-22T03:09:27.405Z,100675.95
2023-05-22T03:11:58.322Z,100676.59
2023-05-22T03:14:29.570Z,100675.71
2023-05-22T03:16:59.341Z,100677.14
2023-05-22T03:19:29.662Z,100676.75
2023-05-22T03:21:59.576Z,100676.88
2023-05-22T03:24:30.049Z,100670.73
2023-05-22T03:27:00.329Z,100674.45
2023-05-22T03:29:36.813Z,100668.88
2023-05-22T03:32:07.752Z,100670.95
2023-05-22T03:34:38.460Z,100669.77
2023-05-22T03:37:09.573Z,100670.16
2023-05-22T03:39:40.031Z,100670.41
2023-05-22T03:42:18.704Z,100667.81
2023-05-22T03:44:49.720Z,100669.29
2023-05-22T03:47:19.681Z,100658.48
2023-05-22T03:49:50.798Z,100668.27
2023-05-22T03:52:20.653Z,100663.79
2023-05-22T03:54:52.374Z,100663.55
2023-05-22T03:57:23.567Z,100666.77
2023-05-22T03:59:52.352Z,100671.79
2023-05-22T04:02:24.638Z,100670.73
2023-05-22T04:04:57.176Z,100667.55
2023-05-22T04:07:26.715Z,100666.45
2023-05-22T04:09:58.939Z,100666.09
2023-05-22T04:12:28.440Z,100670.88
2023-05-22T04:14:59.263Z,100670.30
2023-05-22T04:17:34.454Z,100667.08
2023-05-22T04:20:05.869Z,100669.27
2023-05-22T04:22:35.460Z,100660.81
2023-05-22T04:25:06.808Z,100657.52
2023-05-22T04:27:38.369Z,100656.52
2023-05-22T04:30:10.856Z,100658.28
2023-05-22T04:32:41.300Z,100647.36
2023-05-22T04:35:13.900Z,100648.76
2023-05-22T04:37:45.920Z,100646.36
2023-05-22T04:40:15.646Z,100642.31
2023-05-22T04:42:45.460Z,100643.95
2023-05-22T04:45:15.935Z,100641.84
2023-05-22T04:47:45.207Z,100638.91
2023-05-22T04:50:16.755Z,100638.83
2023-05-22T04:52:46.348Z,100638.37
2023-05-22T04:55:15.905Z,100641.12
2023-05-22T04:57:45.517Z,100644.30
2023-05-22T05:00:17.688Z,100639.06
2023-05-22T05:02:48.635Z,100641.42
2023-05-22T05:05:17.693Z,100637.55
2023-05-22T05:07:50.438Z,100635.46
2023-05-22T05:10:20.902Z,100634.34
2023-05-22T05:12:52.069Z,100632.54
2023-05-22T05:15:23.203Z,100637.45
2023-05-22T05:17:52.592Z,100640.20
2023-05-22T05:20:21.499Z,100640.58
2023-05-22T05:22:50.517Z,100639.11
2023-05-22T05:25:21.057Z,100641.48
2023-05-22T05:27:51.771Z,100639.27
2023-05-22T05:30:21.737Z,100641.73
2023-05-22T05:33:22.837Z,100643.96
2023-05-22T05:36:18.187Z,100640.08
2023-05-22T05:38:49.114Z,100642.11
2023-05-22T05:41:20.665Z,100634.08
2023-05-22T05:43:57.733Z,100640.65
2023-05-22T05:46:28.404Z,100636.90
2023-05-22T05:48:58.130Z,100638.48
2023-05-22T05:51:28.101Z,100639.11
2023-05-22T05:53:57.703Z,100636.68
2023-05-22T05:56:29.171Z,100635.39
2023-05-22T05:58:58.380Z,100637.80
2023-05-22T06:01:47.797Z,100637.33
2023-05-22T06:04:22.668Z,100637.98
2023-05-22T06:06:53.539Z,100635.34
2023-05-22T06:09:30.346Z,100631.02
2023-05-22T06:12:25.780Z,100632.20
2023-05-22T06:14:59.075Z,100627.31
2023-05-22T06:17:28.300Z,100628.89
2023-05-22T06:20:00.185Z,100627.50
2023-05-22T06:22:30.161Z,100627.27
2023-05-22T06:25:00.780Z,100626.20
2023-05-22T06:27:30.338Z,100622.63
2023-05-22T06:30:00.787Z,100623.34
2023-05-22T06:32:33.379Z,100621.32
2023-05-22T06:35:06.285Z,100621.05
2023-05-22T06:37:36.208Z,100615.08
2023-05-22T06:40:07.691Z,100619.95
2023-05-22T06:42:58.687Z,100617.41
2023-05-22T06:45:37.927Z,100613.91
2023-05-22T06:48:24.170Z,100608.97
2023-05-22T06:51:23.060Z,100609.71
2023-05-22T06:53:53.946Z,100604.10
2023-05-22T06:56:26.987Z,100609.81
2023-05-22T06:58:59.882Z,100609.20
2023-05-22T07:01:43.717Z,100605.71
2023-05-22T07:04:16.072Z,100602.45
2023-05-22T07:07:05.648Z,100599.14
2023-05-22T07:09:35.546Z,100597.15
2023-05-22T07:12:06.326Z,100598.19
2023-05-22T07:14:36.160Z,100596.88
2023-05-22T07:17:08.445Z,100595.93
2023-05-22T07:19:42.315Z,100594.70
2023-05-22T07:22:11.513Z,100593.67
2023-05-22T07:24:41.497Z,100591.35
2023-05-22T07:27:11.851Z,100591.67
2023-05-22T07:29:44.504Z,100584.81
2023-05-22T07:32:15.283Z,100588.08
2023-05-22T07:34:48.689Z,100586.28
2023-05-22T07:37:19.347Z,100587.20
2023-05-22T07:39:50.106Z,100588.11
2023-05-22T07:42:19.811Z,100587.31
2023-05-22T07:44:51.992Z,100583.77
2023-05-22T07:47:22.349Z,100581.46
2023-05-22T07:49:52.739Z,100579.09
2023-05-22T07:52:24.177Z,100581.20
2023-05-22T07:54:55.158Z,100580.19
2023-05-22T07:57:28.738Z,100578.30
2023-05-22T08:00:02.187Z,100577.16
2023-05-22T08:02:42.492Z,100586.14
2023-05-22T08:05:12.349Z,100581.41
2023-05-22T08:07:42.498Z,100578.71
2023-05-22T08:10:16.346Z,100582.60
2023-05-22T08:12:46.409Z,100577.17
2023-05-22T08:15:16.128Z,100573.70
2023-05-22T08:17:45.569Z,100575.39
2023-05-22T08:20:16.471Z,100575.27
2023-05-22T08:22:46.377Z,100573.98
2023-05-22T08:25:16.829Z,100570.96
2023-05-22T08:27:47.138Z,100575.08
2023-05-22T08:30:16.551Z,100569.35
2023-05-22T08:32:46.159Z,100573.55
2023-05-22T08:35:17.130Z,100570.98
2023-05-22T08:37:47.116Z,100572.83
2023-05-22T08:40:17.700Z,100569.60
2023-05-22T08:42:47.487Z,100573.90
2023-05-22T08:45:17.767Z,100568.86
2023-05-22T08:47:51.724Z,100563.62
2023-05-22T08:50:22.194Z,100565.86
2023-05-22T08:52:53.052Z,100564.82
2023-05-22T08:55:21.874Z,100574.20
2023-05-22T08:57:52.261Z,100573.88
2023-05-22T09:00:22.116Z,100568.71
2023-05-22T09:02:51.416Z,100562.13
2023-05-22T09:05:21.869Z,100569.17
2023-05-22T09:07:50.716Z,100564.73
2023-05-22T09:10:23.258Z,100566.45
2023-05-22T09:13:04.975Z,100567.89
2023-05-22T09:15:34.754Z,100556.64
2023-05-22T09:18:04.499Z,100559.79
2023-05-22T09:20:39.321Z,100555.48
2023-05-22T09:23:15.934Z,100554.11
2023-05-22T09:25:46.907Z,100554.17
2023-05-22T09:28:16.630Z,100555.43
2023-05-22T09:30:49.970Z,100554.71
2023-05-22T09:33:20.315Z,100555.42
2023-05-22T09:35:55.674Z,100548.70
2023-05-22T09:38:30.044Z,100545.98
2023-05-22T09:40:58.978Z,100547.10
2023-05-22T09:43:30.386Z,100544.55
2023-05-22T09:46:05.222Z,100542.98
2023-05-22T09:48:38.682Z,100538.81
2023-05-22T09:51:08.818Z,100539.42
2023-05-22T09:53:40.914Z,100535.66
2023-05-22T09:56:14.691Z,100538.23
2023-05-22T09:58:44.227Z,100534.79
2023-05-22T10:01:15.953Z,100526.61
2023-05-22T10:03:49.651Z,100521.31
2023-05-22T10:06:19.368Z,100523.30
2023-05-22T10:08:51.271Z,100513.09
2023-05-22T10:11:20.233Z,100515.94
2023-05-22T10:13:50.590Z,100516.16
2023-05-22T10:16:20.710Z,100511.27
2023-05-22T10:18:50.453Z,100509.98
2023-05-22T10:21:21.806Z,100506.13
2023-05-22T10:23:52.491Z,100505.52
2023-05-22T10:26:22.024Z,100506.61
2023-05-22T10:29:00.421Z,100502.23
2023-05-22T10:31:42.738Z,100503.70
2023-05-22T10:34:38.727Z,100495.75
2023-05-22T10:37:17.298Z,100494.36
2023-05-22T10:39:49.753Z,100494.11
2023-05-22T10:42:18.843Z,100495.62
2023-05-22T10:44:49.046Z,100487.02
2023-05-22T10:47:18.057Z,100490.25
2023-05-22T10:49:47.448Z,100489.69
2023-05-22T10:52:22.230Z,100484.86
2023-05-22T10:54:54.916Z,100484.30
2023-05-22T10:57:25.323Z,100478.54
2023-05-22T11:00:07.805Z,100477.30
2023-05-22T11:02:41.284Z,100470.47
2023-05-22T11:05:22.928Z,100466.39
2023-05-22T11:07:52.880Z,100456.46
2023-05-22T11:10:46.460Z,100459.14
2023-05-22T11:13:19.163Z,100456.63
2023-05-22T11:15:49.391Z,100453.73
2023-05-22T11:18:18.117Z,100454.06
2023-05-22T11:20:47.430Z,100456.13
2023-05-22T11:23:18.629Z,100451.25
2023-05-22T11:25:47.387Z,100450.96
2023-05-22T11:28:17.873Z,100447.21
2023-05-22T11:30:47.190Z,100446.10
2023-05-22T11:33:16.099Z,100444.02
2023-05-22T11:35:48.093Z,100437.89
2023-05-22T11:38:18.459Z,100436.35
2023-05-22T11:40:51.936Z,100432.35
2023-05-22T11:43:30.460Z,100434.27
2023-05-22T11:46:18.063Z,100434.77
2023-05-22T11:48:48.264Z,100433.70
2023-05-22T11:51:19.840Z,100439.88
2023-05-22T11:53:51.263Z,100435.67
2023-05-22T11:56:23.497Z,100431.23
2023-05-22T11:58:53.571Z,100431.30
2023-05-22T12:01:23.827Z,100432.04
2023-05-22T12:03:52.888Z,100426.94
2023-05-22T12:06:24.011Z,100429.52
2023-05-22T12:08:56.504Z,100425.14
2023-05-22T12:11:26.841Z,100425.66
2023-05-22T12:14:03.444Z,100427.15
2023-05-22T12:16:44.943Z,100429.02
2023-05-22T12:19:15.823Z,100427.15
2023-05-22T12:21:46.332Z,100425.15
2023-05-22T12:24:15.384Z,100424.00
2023-05-22T12:26:50.111Z,100420.33
2023-05-22T12:29:27.568Z,100421.95
2023-05-22T12:32:01.943Z,100414.91
2023-05-22T12:34:35.943Z,100411.50
2023-05-22T12:37:05.535Z,100415.95
2023-05-22T12:39:35.431Z,100416.64
2023-05-22T12:42:04.412Z,100409.30
2023-05-22T12:44:36.321Z,100409.38
2023-05-22T12:47:07.546Z,100403.70
2023-05-22T12:49:38.406Z,100404.90
2023-05-22T12:52:09.512Z,100406.95
2023-05-22T12:54:39.760Z,100402.54
2023-05-22T12:57:11.773Z,100396.98
2023-05-22T12:59:40.987Z,100397.27
2023-05-22T13:02:10.613Z,100398.63
2023-05-22T13:04:39.757Z,100395.20
2023-05-22T13:07:08.983Z,100389.91
2023-05-22T13:09:38.231Z,100390.34
2023-05-22T13:12:07.289Z,100388.28
2023-05-22T13:14:39.239Z,100384.95
2023-05-22T13:17:08.401Z,100381.98
2023-05-22T13:19:38.699Z,100381.02
2023-05-22T13:22:09.278Z,100381.20
2023-05-22T13:24:39.537Z,100379.71
2023-05-22T13:27:09.658Z,100367.95
2023-05-22T13:29:38.823Z,100366.77
2023-05-22T13:32:07.909Z,100366.03
2023-05-22T13:34:38.336Z,100365.49
2023-05-22T13:37:09.042Z,100364.34
2023-05-22T13:39:38.178Z,100359.89
2023-05-22T13:42:07.266Z,100355.53
2023-05-22T13:44:36.055Z,100362.71
2023-05-22T13:47:05.739Z,100364.80
2023-05-22T13:49:42.280Z,100362.80
2023-05-22T13:52:12.268Z,100362.19
2023-05-22T13:54:42.665Z,100361.84
2023-05-22T13:57:13.030Z,100358.21
2023-05-22T13:59:43.865Z,100358.48
2023-05-22T14:02:14.416Z,100348.43
2023-05-22T14:04:44.371Z,100349.53
2023-05-22T14:07:15.225Z,100346.85
2023-05-22T14:09:44.740Z,100351.27
2023-05-22T14:12:14.189Z,100345.89
2023-05-22T14:14:42.951Z,100343.92
2023-05-22T14:17:11.810Z,100339.84
2023-05-22T14:19:42.126Z,100334.98
2023-05-22T14:22:13.689Z,100336.52
2023-05-22T14:24:43.335Z,100333.50
2023-05-22T14:27:11.982Z,100328.79
2023-05-22T14:29:40.800Z,100328.55
2023-05-22T14:32:09.789Z,100328.80
2023-05-22T14:34:39.798Z,100331.88
2023-05-22T14:37:09.084Z,100328.90
2023-05-22T14:39:37.760Z,100326.06
2023-05-22T14:42:07.472Z,100327.71
2023-05-22T14:44:36.397Z,100325.27
2023-05-22T14:47:05.118Z,100322.85
2023-05-22T14:49:35.685Z,100320.92
2023-05-22T14:52:06.278Z,100317.14
2023-05-22T14:54:36.970Z,100321.73
2023-05-22T14:57:06.575Z,100317.41
2023-05-22T14:59:37.101Z,100317.13
2023-05-22T15:02:06.149Z,100316.75
2023-05-22T15:04:36.881Z,100317.42
2023-05-22T15:07:06.102Z,100313.77
2023-05-22T15:09:36.307Z,100310.48
2023-05-22T15:12:06.358Z,100313.59
2023-05-22T15:14:35.123Z,100308.20
2023-05-22T15:17:04.590Z,100303.95
2023-05-22T15:19:34.908Z,100305.98
2023-05-22T15:22:18.421Z,100302.77
2023-05-22T15:24:48.589Z,100303.79
2023-05-22T15:27:17.941Z,100299.84
2023-05-22T15:29:48.107Z,100294.84
2023-05-22T15:32:17.011Z,100288.97
2023-05-22T15:34:46.384Z,100286.00
2023-05-22T15:37:16.060Z,100284.45
2023-05-22T15:39:45.149Z,100283.50
2023-05-22T15:42:15.548Z,100277.66
2023-05-22T15:44:46.307Z,100276.02
2023-05-22T15:47:15.887Z,100272.15
2023-05-22T15:49:44.724Z,100271.55
2023-05-22T15:52:13.925Z,100269.69
2023-05-22T15:54:44.346Z,100272.05
2023-05-22T15:57:15.462Z,100261.86
2023-05-22T15:59:47.414Z,100261.04
2023-05-22T16:02:17.092Z,100258.61
2023-05-22T16:04:46.536Z,100260.84
2023-05-22T16:07:15.845Z,100258.81
2023-05-22T16:09:45.828Z,100260.14
2023-05-22T16:12:14.660Z,100257.45
2023-05-22T16:14:44.949Z,100254.48
2023-05-22T16:17:14.109Z,100254.35
2023-05-22T16:19:43.665Z,100252.48
2023-05-22T16:22:12.631Z,100253.33
2023-05-22T16:24:41.757Z,100252.09
2023-05-22T16:27:12.044Z,100252.98
2023-05-22T16:29:41.531Z,100251.35
2023-05-22T16:32:11.042Z,100249.67
2023-05-22T16:34:41.751Z,100246.77
2023-05-22T16:37:11.287Z,100246.23
2023-05-22T16:39:41.699Z,100245.73
2023-05-22T16:42:10.514Z,100245.25
2023-05-22T16:44:39.593Z,100246.95
2023-05-22T16:47:11.784Z,100248.98
2023-05-22T16:49:41.592Z,100248.56
2023-05-22T16:52:12.886Z,100246.59
2023-05-22T16:54:43.062Z,100244.00
2023-05-22T16:57:11.944Z,100242.71
2023-05-22T16:59:41.696Z,100246.52
2023-05-22T17:02:12.034Z,100245.30
2023-05-22T17:04:41.339Z,100243.95
2023-05-22T17:07:10.327Z,100244.83
2023-05-22T17:09:45.842Z,100245.41
2023-05-22T17:12:15.489Z,100252.58
2023-05-22T17:14:46.909Z,100252.91
2023-05-22T17:17:17.249Z,100251.44
2023-05-22T17:19:47.019Z,100247.05
2023-05-22T17:22:16.867Z,100244.56
2023-05-22T17:24:47.403Z,100240.23
2023-05-22T17:27:28.076Z,100241.18
2023-05-22T17:30:05.351Z,100236.98
2023-05-22T17:32:34.964Z,100241.80
2023-05-22T17:35:07.105Z,100239.98
2023-05-22T17:37:36.302Z,100239.30
2023-05-22T17:40:05.743Z,100242.73
2023-05-22T17:42:34.675Z,100236.80
2023-05-22T17:45:04.347Z,100235.46
2023-05-22T17:47:33.395Z,100234.67
2023-05-22T17:50:03.196Z,100232.98
2023-05-22T17:52:34.162Z,100236.52
2023-05-22T17:55:03.420Z,100233.54
2023-05-22T17:57:32.512Z,100233.42
2023-05-22T18:00:02.541Z,100234.48
2023-05-22T18:02:41.206Z,100232.79
2023-05-22T18:05:11.268Z,100234.00
2023-05-22T18:07:40.815Z,100234.06
2023-05-22T18:10:11.319Z,100233.29
2023-05-22T18:12:40.678Z,100234.48
2023-05-22T18:15:11.440Z,100235.05
2023-05-22T18:17:41.960Z,100234.27
2023-05-22T18:20:14.664Z,100232.88
2023-05-22T18:22:43.826Z,100236.91
2023-05-22T18:25:12.927Z,100237.56
2023-05-22T18:27:42.734Z,100238.11
2023-05-22T18:30:12.025Z,100231.80
2023-05-22T18:32:40.920Z,100232.71
2023-05-22T18:35:10.028Z,100231.88
2023-05-22T18:37:39.233Z,100229.39
2023-05-22T18:40:09.783Z,100232.95
2023-05-22T18:42:39.340Z,100232.77
2023-05-22T18:45:08.464Z,100231.73
2023-05-22T18:47:39.948Z,100235.14
2023-05-22T18:50:10.007Z,100235.35
2023-05-22T18:52:40.408Z,100235.63
2023-05-22T18:55:10.390Z,100241.30
2023-05-22T18:57:39.811Z,100241.37
2023-05-22T19:00:10.787Z,100241.20
2023-05-22T19:02:39.851Z,100244.14
2023-05-22T19:05:09.200Z,100243.20
2023-05-22T19:07:38.809Z,100239.21
2023-05-22T19:10:10.097Z,100236.75
2023-05-22T19:12:39.570Z,100240.00
2023-05-22T19:15:09.291Z,100240.25
2023-05-22T19:17:39.485Z,100238.83
2023-05-22T19:20:09.343Z,100243.86
2023-05-22T19:22:39.261Z,100242.83
2023-05-22T19:25:10.986Z,100239.73
2023-05-22T19:27:41.218Z,100240.14
2023-05-22T19:30:11.770Z,100240.13
2023-05-22T19:32:42.643Z,100238.14
2023-05-22T19:35:15.818Z,100244.19
2023-05-22T19:37:44.852Z,100238.94
2023-05-22T19:40:14.502Z,100243.64
2023-05-22T19:42:43.314Z,100242.21
2023-05-22T19:45:12.399Z,100243.79
2023-05-22T19:47:42.168Z,100237.41
2023-05-22T19:50:12.688Z,100240.07
2023-05-22T19:52:42.879Z,100239.82
2023-05-22T19:55:11.978Z,100239.98
2023-05-22T19:57:44.741Z,100240.56
2023-05-22T20:00:16.443Z,100238.64
2023-05-22T20:02:45.433Z,100245.55
2023-05-22T20:05:16.033Z,100237.17
2023-05-22T20:07:45.153Z,100238.52
2023-05-22T20:10:14.200Z,100235.46
2023-05-22T20:12:43.241Z,100235.70
2023-05-22T20:15:15.310Z,100237.11
2023-05-22T20:17:49.483Z,100235.58
2023-05-22T20:20:19.622Z,100236.18
2023-05-22T20:22:50.739Z,100234.05
2023-05-22T20:25:23.541Z,100229.59
2023-05-22T20:27:52.873Z,100230.66
2023-05-22T20:30:22.946Z,100229.42
2023-05-22T20:32:52.316Z,100230.44
2023-05-22T20:35:22.464Z,100230.42
2023-05-22T20:37:53.694Z,100231.16
2023-05-22T20:40:26.835Z,100232.34
2023-05-22T20:42:57.430Z,100231.80
2023-05-22T20:45:32.577Z,100227.45
2023-05-22T20:48:01.766Z,100228.30
2023-05-22T20:50:33.045Z,100227.75
2023-05-22T20:53:02.034Z,100229.32
2023-05-22T20:55:31.209Z,100230.38
2023-05-22T20:58:00.166Z,100229.94
2023-05-22T21:00:30.314Z,100230.56
2023-05-22T21:03:01.545Z,100228.27
2023-05-22T21:05:30.574Z,100229.69
2023-05-22T21:07:59.477Z,100230.33
2023-05-22T21:10:29.404Z,100232.83
2023-05-22T21:12:59.327Z,100233.05
2023-05-22T21:15:29.773Z,100234.27
2023-05-22T21:17:58.732Z,100232.25
2023-05-22T21:20:27.948Z,100231.39
2023-05-22T21:22:58.225Z,100239.15
2023-05-22T21:25:27.593Z,100238.20
2023-05-22T21:27:56.442Z,100236.61
2023-05-22T21:30:25.140Z,100238.08
2023-05-22T21:32:54.848Z,100233.39
2023-05-22T21:35:23.955Z,100231.80
2023-05-22T21:37:53.224Z,100236.46
2023-05-22T21:40:22.554Z,100238.94
2023-05-22T21:42:51.273Z,100240.10
2023-05-22T21:45:20.066Z,100239.05
2023-05-22T21:47:49.020Z,100237.02
2023-05-22T21:50:19.303Z,100234.71
2023-05-22T21:52:48.064Z,100237.71
2023-05-22T21:55:19.031Z,100238.53
2023-05-22T21:57:48.144Z,100237.33
2023-05-22T22:00:19.504Z,100237.55
2023-05-22T22:02:48.343Z,100239.73
2023-05-22T22:05:21.969Z,100240.61
2023-05-22T22:07:50.933Z,100244.42
2023-05-22T22:10:21.100Z,100245.55
2023-05-22T22:12:51.224Z,100238.30
2023-05-22T22:15:22.145Z,100239.55
2023-05-22T22:17:52.691Z,100240.44
2023-05-22T22:20:42.693Z,100238.88
2023-05-22T22:23:11.475Z,100241.23
2023-05-22T22:25:40.809Z,100241.48
2023-05-22T22:28:09.723Z,100242.52
2023-05-22T22:30:40.159Z,100234.06
2023-05-22T22:33:12.184Z,100237.77
2023-05-22T22:35:44.123Z,100227.34
2023-05-22T22:38:14.554Z,100228.02
2023-05-22T22:40:45.264Z,100228.87
2023-05-22T22:43:13.928Z,100225.69
2023-05-22T22:45:43.852Z,100224.05
2023-05-22T22:48:12.717Z,100222.82
2023-05-22T22:50:43.129Z,100221.16
2023-05-22T22:53:11.866Z,100222.15
2023-05-22T22:55:41.072Z,100220.11
2023-05-22T22:58:11.561Z,100220.46
2023-05-22T23:00:40.658Z,100218.73
2023-05-22T23:03:11.907Z,100222.17
2023-05-22T23:05:41.829Z,100223.98
2023-05-22T23:08:11.441Z,100218.41
2023-05-22T23:10:40.230Z,100213.87
2023-05-22T23:13:08.985Z,100212.36
2023-05-22T23:15:39.813Z,100213.02
2023-05-22T23:18:09.143Z,100214.41
2023-05-22T23:20:37.948Z,100213.00
2023-05-22T23:23:07.005Z,100214.06
2023-05-22T23:25:36.039Z,100210.27
2023-05-22T23:28:06.028Z,100210.38
2023-05-22T23:30:35.282Z,100207.09
2023-05-22T23:33:06.488Z,100208.38
2023-05-22T23:35:36.973Z,100210.52
2023-05-22T23:38:05.901Z,100211.46
2023-05-22T23:40:34.834Z,100207.71
2023-05-22T23:43:04.774Z,100209.48
2023-05-22T23:45:33.556Z,100209.20
2023-05-22T23:48:03.783Z,100208.70
2023-05-22T23:50:32.684Z,100207.27
2023-05-22T23:53:01.865Z,100204.45
2023-05-22T23:55:32.081Z,100204.36
2023-05-22T23:58:02.293Z,100204.41
